createdAt,value
2018-11-05T00:05:09.655Z,10.10
2018-11-05T00:10:31.281Z,10.20
2018-11-05T00:15:53.409Z,11.07
2018-11-05T00:21:15.146Z,11.60
2018-11-05T00:26:37.343Z,10.80
2018-11-05T00:31:59.239Z,10.80
2018-11-05T00:37:21.034Z,10.33
2018-11-05T00:42:43.566Z,12.27
2018-11-05T00:48:05.901Z,11.93
2018-11-05T00:53:27.705Z,12.63
2018-11-05T00:58:49.934Z,13.30
2018-11-05T01:04:11.679Z,13.93
2018-11-05T01:09:33.556Z,13.23
2018-11-05T01:14:56.078Z,13.43
2018-11-05T01:20:17.896Z,13.53
2018-11-05T01:25:40.741Z,11.90
2018-11-05T01:31:02.862Z,13.23
2018-11-05T01:36:24.927Z,13.47
2018-11-05T01:41:47.054Z,14.83
2018-11-05T01:47:08.944Z,15.63
2018-11-05T01:52:31.441Z,15.47
2018-11-05T01:57:53.043Z,12.40
2018-11-05T02:03:15.207Z,15.23
2018-11-05T02:08:37.040Z,14.17
2018-11-05T02:13:58.796Z,15.37
2018-11-05T02:19:20.865Z,16.33
2018-11-05T02:24:43.105Z,15.87
2018-11-05T02:30:05.756Z,16.53
2018-11-05T02:35:27.994Z,16.60
2018-11-05T02:40:49.814Z,16.17
2018-11-05T02:46:11.513Z,15.60
2018-11-05T02:51:33.666Z,17.37
2018-11-05T02:56:55.482Z,18.00
2018-11-05T03:02:17.638Z,16.03
2018-11-05T03:07:39.369Z,15.90
2018-11-05T03:13:01.054Z,17.50
2018-11-05T03:18:23.384Z,14.77
2018-11-05T03:23:45.205Z,15.23
2018-11-05T03:29:07.766Z,15.43
2018-11-05T03:34:29.656Z,15.23
2018-11-05T03:39:51.861Z,14.77
2018-11-05T03:45:15.669Z,13.57
2018-11-05T03:50:37.698Z,13.87
2018-11-05T03:55:59.998Z,14.13
2018-11-05T04:01:22.014Z,14.67
2018-11-05T04:06:43.901Z,14.10
2018-11-05T04:12:06.115Z,13.17
2018-11-05T04:17:28.085Z,13.63
2018-11-05T04:22:50.180Z,13.20
2018-11-05T04:28:12.357Z,13.77
2018-11-05T04:33:34.408Z,14.47
2018-11-05T04:38:57.462Z,14.50
2018-11-05T04:44:19.141Z,15.00
2018-11-05T04:49:41.346Z,14.77
2018-11-05T04:55:03.414Z,14.20
2018-11-05T05:00:25.468Z,14.13
2018-11-05T05:05:47.343Z,14.73
2018-11-05T05:11:09.637Z,14.93
2018-11-05T05:16:31.540Z,14.30
2018-11-05T05:21:53.212Z,14.23
2018-11-05T05:27:15.338Z,15.50
2018-11-05T05:32:37.216Z,14.97
2018-11-05T05:37:59.757Z,13.57
2018-11-05T05:43:21.594Z,14.87
2018-11-05T05:48:43.758Z,14.37
2018-11-05T05:54:05.653Z,13.10
2018-11-05T05:59:27.909Z,13.90
2018-11-05T06:04:49.786Z,14.17
2018-11-05T06:10:13.254Z,16.10
2018-11-05T06:15:35.134Z,13.87
2018-11-05T06:20:56.822Z,14.60
2018-11-05T06:26:18.950Z,15.03
2018-11-05T06:31:40.803Z,13.50
2018-11-05T06:37:03.127Z,13.67
2018-11-05T06:42:25.034Z,12.57
2018-11-05T06:47:47.677Z,13.27
2018-11-05T06:53:09.764Z,14.07
2018-11-05T06:58:31.809Z,12.20
2018-11-05T07:03:53.487Z,13.93
2018-11-05T07:09:15.720Z,13.40
2018-11-05T07:14:37.688Z,12.57
2018-11-05T07:19:59.836Z,13.33
2018-11-05T07:25:21.800Z,14.20
2018-11-05T07:30:43.897Z,13.90
2018-11-05T07:36:06.060Z,15.10
2018-11-05T07:41:28.113Z,14.60
2018-11-05T07:46:49.925Z,13.73
2018-11-05T07:52:11.713Z,13.83
2018-11-05T07:57:33.747Z,14.33
2018-11-05T08:02:56.776Z,14.30
2018-11-05T08:08:19.003Z,12.53
2018-11-05T08:13:41.145Z,13.33
2018-11-05T08:19:04.617Z,13.23
2018-11-05T08:24:26.356Z,13.83
2018-11-05T08:29:49.259Z,12.50
2018-11-05T08:35:12.255Z,14.50
2018-11-05T08:40:34.293Z,14.23
2018-11-05T08:45:56.225Z,14.40
2018-11-05T08:51:18.859Z,14.63
2018-11-05T08:56:40.490Z,13.03
2018-11-05T09:02:02.798Z,13.73
2018-11-05T09:07:24.855Z,12.67
2018-11-05T09:12:46.989Z,12.70
2018-11-05T09:18:10.081Z,12.37
2018-11-05T09:23:31.953Z,10.80
2018-11-05T09:28:54.221Z,10.53
2018-11-05T09:34:16.198Z,10.80
2018-11-05T09:39:38.281Z,11.63
2018-11-05T09:45:00.040Z,9.60
2018-11-05T09:50:22.404Z,10.80
2018-11-05T09:55:44.407Z,10.03
2018-11-05T10:01:06.737Z,11.33
2018-11-05T10:06:28.533Z,11.13
2018-11-05T10:11:50.630Z,12.40
2018-11-05T10:17:15.950Z,12.00
2018-11-05T10:22:38.232Z,10.77
2018-11-05T10:28:04.685Z,11.83
2018-11-05T10:33:26.854Z,10.73
2018-11-05T10:38:48.717Z,11.00
2018-11-05T10:44:10.957Z,11.63
2018-11-05T10:49:32.833Z,11.30
2018-11-05T10:54:55.127Z,11.67
2018-11-05T11:00:26.589Z,10.23
2018-11-05T11:05:48.654Z,11.50
2018-11-05T11:11:10.393Z,9.77
2018-11-05T11:16:32.537Z,11.17
2018-11-05T11:21:54.336Z,11.17
2018-11-05T11:27:16.409Z,10.43
2018-11-05T11:32:38.677Z,11.93
2018-11-05T11:38:00.689Z,11.37
2018-11-05T11:43:22.416Z,10.77
2018-11-05T11:48:44.582Z,11.83
2018-11-05T11:54:06.441Z,10.83
2018-11-05T11:59:28.250Z,12.07
2018-11-05T12:04:50.714Z,10.20
2018-11-05T12:10:18.927Z,11.77
2018-11-05T12:15:41.799Z,11.30
2018-11-05T12:21:03.672Z,12.20
2018-11-05T12:26:25.430Z,12.13
2018-11-05T12:31:47.722Z,12.03
2018-11-05T12:37:10.766Z,11.33
2018-11-05T12:42:32.486Z,11.97
2018-11-05T12:47:54.607Z,10.23
2018-11-05T12:53:16.374Z,12.13
2018-11-05T12:58:38.561Z,11.73
2018-11-05T13:04:00.401Z,10.43
2018-11-05T13:09:22.694Z,10.17
2018-11-05T13:14:44.681Z,10.73
2018-11-05T13:20:06.642Z,9.33
2018-11-05T13:25:28.705Z,11.57
2018-11-05T13:30:50.874Z,11.47
2018-11-05T13:36:13.525Z,11.90
2018-11-05T13:41:35.661Z,12.10
2018-11-05T13:46:57.756Z,11.97
2018-11-05T13:52:19.718Z,11.67
2018-11-05T13:57:42.274Z,12.87
2018-11-05T14:03:04.109Z,12.27
2018-11-05T14:08:26.237Z,12.10
2018-11-05T14:13:48.142Z,11.63
2018-11-05T14:19:12.145Z,12.63
2018-11-05T14:24:34.261Z,11.33
2018-11-05T14:29:56.688Z,10.70
2018-11-05T14:35:18.508Z,11.37
2018-11-05T14:40:40.378Z,11.63
2018-11-05T14:46:02.587Z,11.00
2018-11-05T14:51:24.538Z,10.07
2018-11-05T14:56:46.265Z,11.13
2018-11-05T15:02:14.083Z,8.50
2018-11-05T15:07:36.305Z,8.00
2018-11-05T15:12:58.244Z,8.20
2018-11-05T15:18:21.716Z,7.40
2018-11-05T15:23:43.518Z,7.43
2018-11-05T15:29:05.628Z,7.57
2018-11-05T15:34:27.526Z,7.17
2018-11-05T15:39:49.710Z,7.53
2018-11-05T15:45:13.335Z,11.17
2018-11-05T15:50:35.682Z,11.80
2018-11-05T15:55:57.596Z,10.80
2018-11-05T16:01:20.422Z,9.47
2018-11-05T16:06:42.510Z,7.50
2018-11-05T16:12:04.402Z,7.67
2018-11-05T16:17:26.718Z,8.13
2018-11-05T16:22:49.705Z,7.77
2018-11-05T16:28:11.643Z,7.70
2018-11-05T16:33:33.669Z,7.90
2018-11-05T16:38:55.525Z,7.80
2018-11-05T16:44:17.634Z,7.53
2018-11-05T16:49:39.661Z,6.97
2018-11-05T16:55:02.070Z,8.00
2018-11-05T17:00:23.846Z,7.03
2018-11-05T17:05:45.541Z,7.43
2018-11-05T17:11:08.201Z,7.90
2018-11-05T17:16:29.990Z,8.00
2018-11-05T17:21:52.014Z,8.80
2018-11-05T17:27:14.240Z,9.13
2018-11-05T17:32:37.154Z,8.63
2018-11-05T17:37:59.154Z,9.03
2018-11-05T17:43:21.013Z,8.50
2018-11-05T17:48:43.294Z,8.53
2018-11-05T17:54:05.620Z,8.00
2018-11-05T17:59:28.027Z,8.10
2018-11-05T18:04:49.657Z,8.00
2018-11-05T18:10:11.794Z,8.47
2018-11-05T18:15:33.705Z,8.63
2018-11-05T18:20:55.731Z,8.60
2018-11-05T18:26:18.006Z,7.77
2018-11-05T18:31:40.077Z,7.17
2018-11-05T18:37:01.980Z,6.70
2018-11-05T18:42:24.025Z,4.77
2018-11-05T18:47:46.092Z,3.90
2018-11-05T18:53:08.329Z,4.90
2018-11-05T18:58:30.265Z,4.73
2018-11-05T19:03:52.818Z,4.43
2018-11-05T19:09:14.595Z,3.07
2018-11-05T19:14:36.617Z,3.33
2018-11-05T19:19:58.460Z,2.83
2018-11-05T19:25:20.625Z,3.03
2018-11-05T19:30:42.753Z,3.00
2018-11-05T19:36:06.444Z,2.73
2018-11-05T19:41:28.244Z,2.57
2018-11-05T19:46:50.305Z,2.80
2018-11-05T19:52:12.153Z,2.20
2018-11-05T19:57:34.445Z,2.27
2018-11-05T20:02:57.902Z,2.53
2018-11-05T20:08:19.832Z,2.93
2018-11-05T20:13:41.806Z,3.73
2018-11-05T20:19:03.703Z,4.13
2018-11-05T20:24:25.880Z,3.53
2018-11-05T20:29:47.958Z,3.53
2018-11-05T20:35:10.505Z,3.10
2018-11-05T20:40:32.403Z,3.60
2018-11-05T20:45:54.386Z,4.27
2018-11-05T20:51:16.190Z,3.80
2018-11-05T20:56:38.381Z,4.07
2018-11-05T21:02:00.269Z,4.33
2018-11-05T21:07:23.516Z,3.93
2018-11-05T21:12:45.924Z,3.93
2018-11-05T21:18:08.038Z,3.67
2018-11-05T21:23:29.837Z,2.60
2018-11-05T21:28:52.729Z,3.03
2018-11-05T21:34:14.614Z,3.40
2018-11-05T21:39:36.961Z,2.70
2018-11-05T21:44:59.233Z,3.23
2018-11-05T21:50:21.435Z,3.17
2018-11-05T21:55:43.322Z,3.00
2018-11-05T22:01:05.445Z,3.83
2018-11-05T22:06:27.357Z,2.70
2018-11-05T22:11:49.529Z,3.17
2018-11-05T22:17:11.444Z,2.77
2018-11-05T22:22:33.648Z,2.57
2018-11-05T22:27:55.397Z,1.67
2018-11-05T22:33:17.582Z,2.40
2018-11-05T22:38:40.091Z,2.43
2018-11-05T22:44:02.180Z,2.20
2018-11-05T22:49:26.010Z,3.03
2018-11-05T22:54:48.554Z,2.50
2018-11-05T23:00:16.969Z,1.97
2018-11-05T23:05:39.082Z,2.70
2018-11-05T23:11:01.046Z,2.97
2018-11-05T23:16:23.312Z,2.20
2018-11-05T23:21:45.441Z,2.20
2018-11-05T23:27:07.485Z,2.13
2018-11-05T23:32:29.401Z,2.03
2018-11-05T23:37:51.705Z,1.97
2018-11-05T23:43:13.545Z,1.97
2018-11-05T23:48:35.798Z,2.17
2018-11-05T23:53:58.120Z,2.03
2018-11-05T23:59:20.061Z,2.20
